Time;durP1;ratioP1;P1;durP2;ratioP2;P2;SDS_P1;SDS_P2;PMS_P1;PMS_P2;Temp;Humidity;BMP_temperature;BMP_pressure;BME280_temperature;BME280_humidity;BME280_pressure;Samples;Min_cycle;Max_cycle;Signal;HPM_P1;HPM_P2
2021/07/24 00:03:12;;;;;;;;;;;25.70;48.10;;;;;;8305957;28;20012;-45
2021/07/24 00:07:13;;;;;;;;;;;25.70;47.90;;;;;;8292493;28;19951;-47
2021/07/24 00:11:13;;;;;;;;;;;25.60;48.20;;;;;;8310132;28;19929;-46
2021/07/24 00:15:14;;;;;;;;;;;25.50;48.30;;;;;;8302731;28;19976;-47
2021/07/24 00:19:14;;;;;;;;;;;25.50;48.60;;;;;;8304647;28;19941;-46
2021/07/24 00:23:14;;;;;;;;;;;25.50;48.80;;;;;;8305500;28;20040;-46
2021/07/24 00:27:15;;;;;;;;;;;25.40;48.80;;;;;;8311454;28;20324;-47
2021/07/24 00:31:16;;;;;;;;;;;25.40;48.80;;;;;;8307978;28;19960;-46
2021/07/24 00:35:16;;;;;;;;;;;25.40;48.90;;;;;;8301913;28;19925;-47
2021/07/24 00:39:17;;;;;;;;;;;25.40;49.00;;;;;;8299863;28;19929;-51
2021/07/24 00:43:17;;;;;;;;;;;25.30;49.20;;;;;;8294560;28;19926;-49
2021/07/24 00:47:19;;;;;;;;;;;25.30;48.90;;;;;;8290699;28;19933;-48
2021/07/24 00:51:28;;;;;;;;;;;25.30;48.90;;;;;;8291580;28;19921;-46
2021/07/24 00:55:29;;;;;;;;;;;25.30;48.40;;;;;;8291125;28;19929;-47
2021/07/24 00:59:29;;;;;;;;;;;25.30;48.20;;;;;;8290348;28;19929;-47
2021/07/24 01:03:30;;;;;;;;;;;25.30;47.90;;;;;;8291210;28;20033;-46
2021/07/24 01:07:33;;;;;;;;;;;25.20;47.80;;;;;;8291398;28;19925;-47
2021/07/24 01:11:34;;;;;;;;;;;25.20;47.80;;;;;;8294954;28;19925;-48
2021/07/24 01:15:35;;;;;;;;;;;25.20;47.80;;;;;;8305669;28;20056;-47
2021/07/24 01:19:35;;;;;;;;;;;25.10;47.70;;;;;;8306641;28;19937;-48
2021/07/24 01:23:37;;;;;;;;;;;25.10;47.90;;;;;;8305621;28;20434;-46
2021/07/24 01:27:41;;;;;;;;;;;25.10;47.90;;;;;;8305144;28;19948;-49
2021/07/24 01:31:42;;;;;;;;;;;25.00;47.70;;;;;;8304917;28;19917;-47
2021/07/24 01:35:46;;;;;;;;;;;25.00;48.00;;;;;;8305177;28;19922;-50
2021/07/24 01:39:46;;;;;;;;;;;25.00;48.00;;;;;;8304530;28;20016;-48
2021/07/24 01:43:47;;;;;;;;;;;25.00;48.20;;;;;;8309530;28;19928;-48
2021/07/24 01:47:49;;;;;;;;;;;24.90;48.30;;;;;;8309892;28;20301;-50
2021/07/24 01:56:15;;;;;;;;;;;25.10;47.90;;;;;;8313646;28;20029;-47
2021/07/24 02:00:17;;;;;;;;;;;25.10;47.70;;;;;;8312755;28;19926;-47
2021/07/24 02:04:20;;;;;;;;;;;25.10;47.70;;;;;;8312749;28;20351;-47
2021/07/24 02:08:22;;;;;;;;;;;25.10;47.80;;;;;;8313667;28;19925;-48
2021/07/24 02:12:22;;;;;;;;;;;25.10;47.80;;;;;;8306699;28;19971;-48
2021/07/24 02:16:23;;;;;;;;;;;25.00;47.80;;;;;;8305508;28;19949;-48
2021/07/24 02:20:23;;;;;;;;;;;25.00;47.80;;;;;;8298010;28;20028;-56
2021/07/24 02:24:24;;;;;;;;;;;25.00;47.50;;;;;;8315835;28;19917;-47
2021/07/24 02:28:24;;;;;;;;;;;24.90;47.70;;;;;;8301113;28;19992;-49
2021/07/24 02:32:25;;;;;;;;;;;24.90;47.50;;;;;;8319931;28;20320;-49
2021/07/24 02:36:25;;;;;;;;;;;24.90;47.20;;;;;;8314904;28;20008;-48
2021/07/24 02:40:26;;;;;;;;;;;24.90;46.50;;;;;;8330577;28;20393;-51
2021/07/24 02:44:26;;;;;;;;;;;24.90;46.30;;;;;;8305909;28;20330;-49
2021/07/24 02:48:27;;;;;;;;;;;24.80;46.20;;;;;;8330092;28;19917;-54
2021/07/24 02:52:27;;;;;;;;;;;24.80;46.30;;;;;;8324254;28;20388;-51
2021/07/24 02:56:28;;;;;;;;;;;24.70;46.60;;;;;;8326739;28;20358;-51
2021/07/24 03:00:28;;;;;;;;;;;24.70;46.90;;;;;;8304563;28;19956;-53
2021/07/24 03:04:29;;;;;;;;;;;24.60;47.10;;;;;;8314431;28;19932;-48
2021/07/24 03:08:29;;;;;;;;;;;24.60;47.60;;;;;;8324399;28;19925;-50
2021/07/24 03:12:29;;;;;;;;;;;24.60;47.40;;;;;;8315799;28;19917;-49
2021/07/24 03:16:30;;;;;;;;;;;24.60;47.40;;;;;;8323779;28;20429;-48
2021/07/24 03:20:30;;;;;;;;;;;24.60;47.50;;;;;;8307047;28;19926;-52
2021/07/24 03:24:31;;;;;;;;;;;24.60;47.60;;;;;;8311262;28;19922;-48
2021/07/24 03:28:31;;;;;;;;;;;24.60;47.60;;;;;;8310469;28;19932;-54
2021/07/24 03:32:32;;;;;;;;;;;24.60;47.50;;;;;;8309930;28;20008;-53
2021/07/24 03:36:32;;;;;;;;;;;24.60;47.60;;;;;;8308015;28;19924;-55
2021/07/24 03:40:33;;;;;;;;;;;24.50;47.80;;;;;;8313908;28;19925;-55
2021/07/24 03:44:33;;;;;;;;;;;24.50;47.90;;;;;;8315261;28;20389;-50
2021/07/24 03:48:33;;;;;;;;;;;24.50;48.10;;;;;;8310404;28;19921;-51
2021/07/24 03:52:34;;;;;;;;;;;24.40;48.20;;;;;;8324301;28;19913;-53
2021/07/24 03:56:35;;;;;;;;;;;24.40;48.60;;;;;;8305334;28;20012;-54
2021/07/24 04:00:43;;;;;;;;;;;24.40;49.10;;;;;;8320287;28;19929;-48
2021/07/24 04:04:45;;;;;;;;;;;24.40;49.30;;;;;;8316590;28;20012;-50
2021/07/24 04:08:46;;;;;;;;;;;24.40;49.50;;;;;;8313194;28;20298;-53
2021/07/24 04:12:49;;;;;;;;;;;24.30;49.60;;;;;;8308869;28;19924;-52
2021/07/24 04:16:51;;;;;;;;;;;24.40;49.80;;;;;;8321769;28;20293;-53
2021/07/24 04:20:51;;;;;;;;;;;24.30;50.00;;;;;;8309217;28;20374;-52
2021/07/24 04:24:52;;;;;;;;;;;24.30;50.00;;;;;;8305005;28;19920;-53
2021/07/24 04:28:52;;;;;;;;;;;24.30;49.90;;;;;;8327030;28;19917;-46
2021/07/24 04:32:53;;;;;;;;;;;24.20;49.70;;;;;;8301494;28;19917;-47
2021/07/24 04:36:53;;;;;;;;;;;24.20;50.20;;;;;;8311457;28;19925;-47
2021/07/24 04:40:53;;;;;;;;;;;24.20;50.30;;;;;;8325599;28;19929;-52
2021/07/24 04:44:54;;;;;;;;;;;24.20;50.30;;;;;;8320444;28;19944;-47
2021/07/24 04:48:55;;;;;;;;;;;24.20;50.30;;;;;;8327740;28;19932;-49
2021/07/24 04:52:55;;;;;;;;;;;24.20;50.60;;;;;;8306286;28;19928;-49
2021/07/24 04:56:56;;;;;;;;;;;24.20;50.30;;;;;;8299544;28;19922;-49
2021/07/24 05:00:57;;;;;;;;;;;24.20;50.30;;;;;;8299465;28;19933;-51
2021/07/24 05:04:58;;;;;;;;;;;24.20;50.30;;;;;;8299759;28;19963;-51
2021/07/24 05:08:58;;;;;;;;;;;24.20;50.40;;;;;;8300194;28;20345;-53
2021/07/24 05:12:59;;;;;;;;;;;24.20;50.30;;;;;;8299512;28;20294;-47
2021/07/24 05:17:09;;;;;;;;;;;24.30;50.40;;;;;;8298918;28;19914;-48
2021/07/24 05:21:14;;;;;;;;;;;24.30;50.40;;;;;;8299299;28;19929;-47
2021/07/24 05:25:14;;;;;;;;;;;24.30;50.60;;;;;;8299594;28;20363;-47
2021/07/24 05:29:15;;;;;;;;;;;24.30;50.80;;;;;;8298623;28;19917;-49
2021/07/24 05:33:15;;;;;;;;;;;24.20;51.60;;;;;;8298959;28;19949;-52
2021/07/24 05:37:15;;;;;;;;;;;24.20;52.10;;;;;;8298627;28;19941;-48
2021/07/24 05:41:16;;;;;;;;;;;24.10;52.30;;;;;;8298851;28;19925;-48
2021/07/24 05:45:16;;;;;;;;;;;24.10;52.60;;;;;;8298526;28;19917;-49
2021/07/24 05:49:17;;;;;;;;;;;24.10;53.00;;;;;;8298428;28;19921;-48
2021/07/24 05:53:17;;;;;;;;;;;24.00;53.30;;;;;;8297663;28;20012;-47
2021/07/24 05:57:18;;;;;;;;;;;24.00;53.60;;;;;;8298343;28;19918;-47
2021/07/24 06:01:18;;;;;;;;;;;24.00;53.60;;;;;;8297831;28;20445;-48
2021/07/24 06:05:19;;;;;;;;;;;24.00;53.80;;;;;;8297552;28;19924;-48
2021/07/24 06:09:20;;;;;;;;;;;24.00;54.20;;;;;;8298157;28;20302;-48
2021/07/24 06:13:23;;;;;;;;;;;23.90;54.60;;;;;;8297246;28;19937;-50
2021/07/24 06:17:23;;;;;;;;;;;23.90;54.40;;;;;;8303020;28;19917;-47
2021/07/24 06:21:24;;;;;;;;;;;23.90;54.40;;;;;;8304316;28;20392;-48
2021/07/24 06:25:24;;;;;;;;;;;23.80;54.70;;;;;;8297713;28;20397;-50
2021/07/24 06:29:25;;;;;;;;;;;23.90;55.00;;;;;;8297101;28;19925;-47
2021/07/24 06:33:25;;;;;;;;;;;23.80;55.30;;;;;;8298205;28;19921;-49
2021/07/24 06:37:26;;;;;;;;;;;23.80;55.30;;;;;;8297398;28;19917;-47
2021/07/24 06:41:26;;;;;;;;;;;23.80;55.40;;;;;;8296908;28;20371;-48
2021/07/24 06:45:27;;;;;;;;;;;23.80;55.30;;;;;;8297069;28;20366;-46
2021/07/24 06:49:27;;;;;;;;;;;23.80;55.40;;;;;;8298042;28;19914;-48
2021/07/24 06:53:27;;;;;;;;;;;23.80;55.20;;;;;;8296944;28;19918;-49
2021/07/24 06:57:28;;;;;;;;;;;23.80;55.30;;;;;;8297465;28;19924;-47
2021/07/24 07:01:28;;;;;;;;;;;23.80;55.40;;;;;;8293922;28;19925;-53
2021/07/24 07:05:30;;;;;;;;;;;23.70;55.40;;;;;;8300562;28;19982;-51
2021/07/24 07:09:30;;;;;;;;;;;23.80;55.30;;;;;;8330281;28;20355;-50
2021/07/24 07:13:31;;;;;;;;;;;23.80;55.40;;;;;;8329480;28;20035;-50
2021/07/24 07:17:31;;;;;;;;;;;23.70;55.40;;;;;;8328993;28;20374;-49
2021/07/24 07:21:32;;;;;;;;;;;23.70;55.20;;;;;;8329257;28;20283;-48
2021/07/24 07:25:33;;;;;;;;;;;23.70;55.40;;;;;;8332554;28;19913;-47
2021/07/24 07:29:33;;;;;;;;;;;23.70;55.70;;;;;;8334913;28;19924;-47
2021/07/24 07:33:34;;;;;;;;;;;23.70;56.00;;;;;;8335491;28;19996;-46
2021/07/24 07:37:44;;;;;;;;;;;23.70;56.30;;;;;;8335123;28;19917;-49
2021/07/24 07:41:45;;;;;;;;;;;23.70;56.20;;;;;;8334854;28;19921;-51
2021/07/24 07:45:45;;;;;;;;;;;23.70;56.10;;;;;;8335839;28;19917;-48
2021/07/24 07:49:45;;;;;;;;;;;23.70;56.60;;;;;;8334376;28;19925;-48
2021/07/24 07:53:46;;;;;;;;;;;23.80;56.90;;;;;;8334579;28;19917;-48
2021/07/24 07:57:46;;;;;;;;;;;23.80;57.10;;;;;;8334539;28;20012;-48
2021/07/24 08:01:47;;;;;;;;;;;23.70;57.10;;;;;;8334882;28;20381;-49
2021/07/24 08:05:48;;;;;;;;;;;23.70;57.30;;;;;;8334161;28;19967;-48
2021/07/24 08:09:48;;;;;;;;;;;23.70;57.30;;;;;;8334342;28;19940;-48
2021/07/24 08:13:49;;;;;;;;;;;23.70;57.30;;;;;;8333458;28;20404;-51
2021/07/24 08:17:49;;;;;;;;;;;23.70;57.10;;;;;;8334991;28;20353;-50
2021/07/24 08:21:49;;;;;;;;;;;23.70;57.30;;;;;;8333839;28;20420;-49
2021/07/24 08:25:50;;;;;;;;;;;23.70;57.40;;;;;;8332836;28;20405;-49
2021/07/24 08:29:51;;;;;;;;;;;23.70;58.80;;;;;;8333448;28;20003;-49
2021/07/24 08:33:51;;;;;;;;;;;23.70;59.20;;;;;;8328324;28;20333;-48
2021/07/24 08:37:52;;;;;;;;;;;23.70;59.30;;;;;;8307722;28;19964;-47
2021/07/24 08:41:52;;;;;;;;;;;23.70;59.30;;;;;;8315318;28;19982;-48
2021/07/24 08:45:55;;;;;;;;;;;23.60;59.30;;;;;;8314412;28;19956;-48
2021/07/24 08:49:59;;;;;;;;;;;23.60;58.90;;;;;;8311631;28;20008;-47
2021/07/24 08:53:59;;;;;;;;;;;23.70;59.30;;;;;;8325201;28;19925;-46
2021/07/24 08:58:00;;;;;;;;;;;23.70;59.00;;;;;;8328476;28;19925;-46
2021/07/24 09:02:01;;;;;;;;;;;23.70;59.40;;;;;;8311026;28;20438;-48
2021/07/24 09:06:01;;;;;;;;;;;23.70;58.60;;;;;;8300237;28;20361;-46
2021/07/24 09:10:02;;;;;;;;;;;23.70;58.20;;;;;;8299625;28;19963;-47
2021/07/24 09:14:03;;;;;;;;;;;23.70;58.50;;;;;;8318453;28;19924;-47
2021/07/24 09:18:03;;;;;;;;;;;23.80;59.00;;;;;;8305781;28;20267;-48
2021/07/24 09:22:23;;;;;;;;;;;23.80;59.10;;;;;;8311181;28;19960;-48
2021/07/24 09:26:30;;;;;;;;;;;23.80;59.30;;;;;;8303841;28;19917;-49
2021/07/24 09:30:34;;;;;;;;;;;23.70;59.20;;;;;;8332330;28;19913;-48
2021/07/24 09:34:39;;;;;;;;;;;23.70;59.00;;;;;;8331349;28;19952;-50
2021/07/24 09:38:40;;;;;;;;;;;23.70;58.90;;;;;;8314943;28;19931;-47
2021/07/24 09:42:40;;;;;;;;;;;23.70;59.10;;;;;;8318431;28;19917;-47
2021/07/24 09:46:53;;;;;;;;;;;23.70;59.60;;;;;;8298651;28;19918;-48
2021/07/24 09:50:53;;;;;;;;;;;23.60;59.60;;;;;;8298460;28;20251;-48
2021/07/24 09:55:13;;;;;;;;;;;23.70;59.80;;;;;;8298556;28;19925;-47
2021/07/24 09:59:24;;;;;;;;;;;23.60;59.90;;;;;;8297758;28;19969;-47
2021/07/24 10:03:27;;;;;;;;;;;23.70;60.00;;;;;;8298122;28;20394;-47
2021/07/24 10:07:29;;;;;;;;;;;23.70;60.40;;;;;;8298146;28;20067;-49
2021/07/24 10:11:30;;;;;;;;;;;23.80;59.70;;;;;;8301256;28;19914;-47
2021/07/24 10:15:40;;;;;;;;;;;23.80;61.60;;;;;;8303928;28;19918;-47
2021/07/24 10:19:42;;;;;;;;;;;23.80;61.00;;;;;;8297649;28;20390;-48
2021/07/24 10:23:42;;;;;;;;;;;23.80;60.10;;;;;;8297208;28;19924;-47
2021/07/24 10:27:43;;;;;;;;;;;23.80;60.10;;;;;;8298390;28;20327;-48
2021/07/24 10:31:52;;;;;;;;;;;23.80;60.80;;;;;;8297121;28;19945;-48
2021/07/24 10:36:08;;;;;;;;;;;23.70;61.30;;;;;;8297439;28;19964;-48
2021/07/24 10:40:30;;;;;;;;;;;23.70;61.40;;;;;;8297241;28;19981;-47
2021/07/24 10:44:35;;;;;;;;;;;23.70;61.90;;;;;;8296756;28;20291;-47
2021/07/24 10:48:42;;;;;;;;;;;23.70;62.40;;;;;;8298211;28;19921;-49
2021/07/24 10:53:05;;;;;;;;;;;23.70;61.90;;;;;;8297837;28;20012;-48
2021/07/24 10:57:05;;;;;;;;;;;23.70;61.50;;;;;;8297003;28;19943;-48
2021/07/24 11:01:07;;;;;;;;;;;23.80;61.20;;;;;;8300469;28;19934;-47
2021/07/24 11:05:23;;;;;;;;;;;23.80;61.20;;;;;;8303047;28;19925;-48
2021/07/24 11:09:30;;;;;;;;;;;23.90;60.50;;;;;;8304313;28;19914;-48
2021/07/24 11:13:46;;;;;;;;;;;23.90;59.50;;;;;;8303895;28;19918;-48
2021/07/24 11:18:06;;;;;;;;;;;24.00;59.40;;;;;;8303161;28;19922;-48
2021/07/24 11:22:07;;;;;;;;;;;24.10;59.40;;;;;;8302799;28;19917;-48
2021/07/24 11:26:07;;;;;;;;;;;24.10;58.80;;;;;;8302523;28;20328;-48
2021/07/24 11:30:09;;;;;;;;;;;24.10;59.20;;;;;;8303366;28;19948;-48
2021/07/24 11:34:09;;;;;;;;;;;24.10;59.40;;;;;;8302393;28;20280;-48
2021/07/24 11:38:20;;;;;;;;;;;24.20;59.20;;;;;;8301769;28;19925;-47
2021/07/24 11:42:20;;;;;;;;;;;24.20;59.10;;;;;;8302251;28;19925;-48
2021/07/24 11:46:23;;;;;;;;;;;24.10;59.10;;;;;;8302217;28;19921;-50
2021/07/24 11:50:23;;;;;;;;;;;24.10;58.80;;;;;;8302281;28;19963;-48
2021/07/24 11:54:27;;;;;;;;;;;24.10;58.90;;;;;;8302198;28;19918;-48
2021/07/24 11:58:28;;;;;;;;;;;24.10;58.90;;;;;;8301928;28;20321;-48
2021/07/24 12:02:29;;;;;;;;;;;24.10;58.80;;;;;;8301036;28;19917;-49
2021/07/24 12:06:29;;;;;;;;;;;24.10;58.80;;;;;;8302562;28;20008;-48
2021/07/24 12:10:32;;;;;;;;;;;24.10;58.50;;;;;;8301121;28;20378;-50
2021/07/24 12:14:33;;;;;;;;;;;24.10;58.60;;;;;;8300338;28;19918;-50
2021/07/24 12:18:48;;;;;;;;;;;24.10;58.80;;;;;;8300615;28;21318;-48
2021/07/24 12:22:48;;;;;;;;;;;24.10;59.00;;;;;;8300816;28;20394;-49
2021/07/24 12:26:49;;;;;;;;;;;24.20;59.10;;;;;;8301508;28;19914;-47
2021/07/24 12:30:49;;;;;;;;;;;24.30;58.60;;;;;;8300771;28;19917;-49
2021/07/24 12:34:50;;;;;;;;;;;24.30;58.60;;;;;;8300441;28;19925;-48
2021/07/24 12:38:51;;;;;;;;;;;24.30;58.40;;;;;;8300488;28;20405;-50
2021/07/24 12:42:52;;;;;;;;;;;24.30;58.10;;;;;;8301179;28;19914;-49
2021/07/24 12:47:08;;;;;;;;;;;24.30;58.40;;;;;;8299845;28;20307;-48
2021/07/24 12:51:14;;;;;;;;;;;24.30;58.60;;;;;;8282585;28;20000;-47
2021/07/24 12:55:19;;;;;;;;;;;24.30;58.80;;;;;;8301228;28;19917;-49
2021/07/24 12:59:19;;;;;;;;;;;24.40;57.70;;;;;;8299387;28;19925;-48
2021/07/24 13:03:20;;;;;;;;;;;24.40;57.70;;;;;;8301012;28;19967;-49
2021/07/24 13:07:25;;;;;;;;;;;24.40;57.60;;;;;;8299863;28;19928;-48
2021/07/24 13:11:26;;;;;;;;;;;24.50;57.50;;;;;;8300338;28;19917;-47
2021/07/24 13:15:26;;;;;;;;;;;24.50;58.00;;;;;;8299549;28;20378;-47
2021/07/24 13:19:27;;;;;;;;;;;24.50;58.00;;;;;;8299995;28;19925;-51
2021/07/24 13:23:27;;;;;;;;;;;24.50;57.80;;;;;;8298666;28;20267;-49
2021/07/24 13:31:47;;;;;;;;;;;24.60;57.70;;;;;;8300148;28;19924;-48
2021/07/24 13:35:48;;;;;;;;;;;24.60;57.00;;;;;;8299134;28;20013;-46
2021/07/24 13:39:50;;;;;;;;;;;24.60;56.70;;;;;;8299434;28;19980;-46
2021/07/24 13:43:50;;;;;;;;;;;24.70;56.00;;;;;;8298038;28;20011;-46
2021/07/24 13:47:51;;;;;;;;;;;24.70;56.10;;;;;;8298987;28;19925;-50
2021/07/24 13:51:51;;;;;;;;;;;24.70;56.30;;;;;;8298374;28;20016;-48
2021/07/24 13:55:52;;;;;;;;;;;24.70;55.80;;;;;;8298691;28;20329;-48
2021/07/24 13:59:52;;;;;;;;;;;24.80;55.50;;;;;;8298369;28;20008;-46
2021/07/24 14:03:53;;;;;;;;;;;24.80;55.70;;;;;;8298055;28;19917;-46
2021/07/24 14:07:54;;;;;;;;;;;24.80;55.70;;;;;;8297906;28;19922;-49
2021/07/24 14:11:54;;;;;;;;;;;24.80;56.00;;;;;;8297819;28;19936;-47
2021/07/24 14:15:54;;;;;;;;;;;24.90;56.30;;;;;;8298560;28;19920;-48
2021/07/24 14:19:55;;;;;;;;;;;24.90;56.00;;;;;;8297234;28;19929;-47
2021/07/24 14:23:56;;;;;;;;;;;24.80;55.90;;;;;;8297813;28;19925;-48
2021/07/24 14:27:56;;;;;;;;;;;24.80;56.10;;;;;;8297693;28;19941;-46
2021/07/24 14:31:58;;;;;;;;;;;24.80;56.50;;;;;;8298000;28;19918;-46
2021/07/24 14:35:59;;;;;;;;;;;24.80;56.50;;;;;;8297198;28;19921;-47
2021/07/24 14:39:59;;;;;;;;;;;24.80;56.50;;;;;;8297416;28;19933;-46
2021/07/24 14:44:00;;;;;;;;;;;24.80;56.70;;;;;;8296785;28;20633;-56
2021/07/24 14:48:00;;;;;;;;;;;24.80;57.30;;;;;;8297544;28;19917;-51
2021/07/24 14:52:01;;;;;;;;;;;24.70;57.00;;;;;;8297742;28;19920;-52
2021/07/24 14:56:01;;;;;;;;;;;24.60;57.20;;;;;;8296657;28;19917;-54
2021/07/24 15:00:04;;;;;;;;;;;24.60;58.20;;;;;;8297159;28;20446;-55
2021/07/24 15:04:05;;;;;;;;;;;24.60;58.00;;;;;;8297225;28;19940;-50
2021/07/24 15:08:05;;;;;;;;;;;24.70;58.60;;;;;;8297594;28;19921;-54
2021/07/24 15:12:06;;;;;;;;;;;24.70;59.00;;;;;;8296719;28;20366;-49
2021/07/24 15:16:07;;;;;;;;;;;24.80;58.70;;;;;;8296746;28;19917;-48
2021/07/24 15:20:08;;;;;;;;;;;24.80;58.60;;;;;;8296184;28;19948;-47
2021/07/24 15:24:09;;;;;;;;;;;24.80;58.00;;;;;;8297487;28;19918;-49
2021/07/24 15:28:10;;;;;;;;;;;24.90;58.20;;;;;;8296773;28;19922;-48
2021/07/24 15:32:10;;;;;;;;;;;24.90;57.70;;;;;;8295916;28;19918;-48
2021/07/24 15:36:11;;;;;;;;;;;25.00;57.50;;;;;;8296349;28;20282;-48
2021/07/24 15:40:12;;;;;;;;;;;25.00;57.40;;;;;;8296364;28;19922;-48
2021/07/24 15:44:12;;;;;;;;;;;25.00;56.90;;;;;;8296799;28;19918;-47
2021/07/24 15:48:13;;;;;;;;;;;25.10;57.00;;;;;;8281945;28;19917;-48
2021/07/24 15:52:13;;;;;;;;;;;25.10;56.30;;;;;;8302095;28;19921;-48
2021/07/24 15:56:14;;;;;;;;;;;25.20;55.70;;;;;;8301345;28;19918;-49
2021/07/24 16:00:15;;;;;;;;;;;25.20;55.70;;;;;;8302713;28;19921;-47
2021/07/24 16:04:15;;;;;;;;;;;25.20;55.90;;;;;;8301620;28;20457;-48
2021/07/24 16:08:15;;;;;;;;;;;25.20;56.00;;;;;;8316890;28;19926;-49
2021/07/24 16:12:16;;;;;;;;;;;25.30;55.70;;;;;;8318845;28;19917;-49
2021/07/24 16:16:20;;;;;;;;;;;25.30;55.80;;;;;;8316186;28;20012;-48
2021/07/24 16:20:20;;;;;;;;;;;25.30;55.80;;;;;;8314844;28;19955;-47
2021/07/24 16:24:21;;;;;;;;;;;25.30;56.60;;;;;;8313688;28;19921;-48
2021/07/24 16:28:21;;;;;;;;;;;25.30;56.20;;;;;;8314791;28;19917;-48
2021/07/24 16:32:22;;;;;;;;;;;25.30;56.00;;;;;;8315822;28;20016;-47
2021/07/24 16:36:22;;;;;;;;;;;25.30;57.10;;;;;;8315239;28;19964;-47
2021/07/24 16:40:23;;;;;;;;;;;25.30;57.40;;;;;;8313987;28;20341;-49
2021/07/24 16:44:23;;;;;;;;;;;25.30;57.10;;;;;;8313607;28;20337;-47
2021/07/24 16:48:24;;;;;;;;;;;25.20;57.00;;;;;;8311943;28;19921;-48
2021/07/24 16:52:24;;;;;;;;;;;25.30;56.80;;;;;;8331221;28;20332;-48
2021/07/24 16:56:26;;;;;;;;;;;25.30;56.50;;;;;;8300604;28;19928;-48
2021/07/24 17:00:26;;;;;;;;;;;25.30;56.60;;;;;;8320013;28;19929;-48
2021/07/24 17:04:26;;;;;;;;;;;25.30;56.40;;;;;;8332569;28;20006;-48
2021/07/24 17:08:27;;;;;;;;;;;25.30;56.40;;;;;;8332210;28;19928;-48
2021/07/24 17:12:27;;;;;;;;;;;25.20;56.70;;;;;;8319327;28;19945;-47
2021/07/24 17:16:28;;;;;;;;;;;25.30;56.80;;;;;;8312790;28;20287;-49
2021/07/24 17:20:28;;;;;;;;;;;25.20;56.90;;;;;;8313957;28;19961;-49
2021/07/24 17:24:29;;;;;;;;;;;25.20;56.80;;;;;;8315828;28;20437;-47
2021/07/24 17:28:29;;;;;;;;;;;25.20;56.50;;;;;;8315445;28;20020;-47
2021/07/24 17:32:30;;;;;;;;;;;25.30;56.50;;;;;;8314166;28;19917;-46
2021/07/24 17:36:30;;;;;;;;;;;25.30;56.40;;;;;;8313284;28;19924;-47
2021/07/24 17:40:31;;;;;;;;;;;25.20;56.30;;;;;;8316268;28;19948;-47
2021/07/24 17:44:31;;;;;;;;;;;25.30;56.20;;;;;;8309428;28;19918;-45
2021/07/24 17:48:32;;;;;;;;;;;25.30;56.00;;;;;;8316838;28;19917;-49
2021/07/24 17:52:32;;;;;;;;;;;25.20;55.80;;;;;;8313160;28;19917;-46
2021/07/24 17:56:33;;;;;;;;;;;25.20;56.00;;;;;;8310692;28;19917;-45
2021/07/24 18:00:33;;;;;;;;;;;25.10;55.90;;;;;;8310478;28;19925;-50
2021/07/24 18:04:34;;;;;;;;;;;25.10;56.70;;;;;;8312784;28;19914;-45
2021/07/24 18:08:35;;;;;;;;;;;25.10;57.00;;;;;;8311503;28;19940;-47
2021/07/24 18:12:35;;;;;;;;;;;25.10;57.20;;;;;;8313100;28;19913;-47
2021/07/24 18:16:36;;;;;;;;;;;25.00;57.60;;;;;;8311846;28;20158;-47
2021/07/24 18:20:37;;;;;;;;;;;25.00;57.30;;;;;;8311943;28;19925;-50
2021/07/24 18:24:37;;;;;;;;;;;25.00;57.70;;;;;;8311887;28;19929;-47
2021/07/24 18:28:38;;;;;;;;;;;25.00;57.80;;;;;;8310447;28;19920;-46
2021/07/24 18:32:42;;;;;;;;;;;25.00;58.20;;;;;;8311153;28;19960;-47
2021/07/24 18:36:42;;;;;;;;;;;25.00;58.90;;;;;;8325411;28;19917;-47
2021/07/24 18:40:43;;;;;;;;;;;25.00;59.50;;;;;;8302660;28;20337;-47
2021/07/24 18:44:43;;;;;;;;;;;25.00;59.00;;;;;;8312098;28;20008;-49
2021/07/24 18:48:44;;;;;;;;;;;25.00;58.30;;;;;;8313585;28;19922;-47
2021/07/24 18:52:44;;;;;;;;;;;25.00;58.40;;;;;;8309245;28;19924;-46
2021/07/24 18:56:45;;;;;;;;;;;25.00;58.40;;;;;;8324224;28;20008;-50
2021/07/24 19:00:45;;;;;;;;;;;25.00;58.40;;;;;;8300598;28;19932;-49
2021/07/24 19:04:49;;;;;;;;;;;24.90;58.40;;;;;;8313060;28;19917;-47
2021/07/24 19:08:50;;;;;;;;;;;24.90;59.30;;;;;;8314213;28;19922;-47
2021/07/24 19:12:56;;;;;;;;;;;24.90;59.10;;;;;;8313329;28;19927;-46
2021/07/24 19:16:57;;;;;;;;;;;24.90;59.20;;;;;;8311084;28;19928;-49
2021/07/24 19:20:58;;;;;;;;;;;24.80;59.50;;;;;;8311945;28;19926;-47
2021/07/24 19:24:59;;;;;;;;;;;24.80;59.50;;;;;;8317387;28;20007;-47
2021/07/24 19:29:00;;;;;;;;;;;24.80;59.20;;;;;;8320173;28;19956;-47
2021/07/24 19:33:00;;;;;;;;;;;24.80;59.00;;;;;;8319148;28;19918;-50
2021/07/24 19:37:01;;;;;;;;;;;24.80;58.90;;;;;;8306886;28;20442;-45
2021/07/24 19:41:02;;;;;;;;;;;24.80;58.50;;;;;;8302172;28;19929;-44
2021/07/24 19:45:07;;;;;;;;;;;24.70;58.40;;;;;;8302636;28;19996;-47
2021/07/24 19:49:07;;;;;;;;;;;24.70;58.50;;;;;;8301828;28;19922;-48
2021/07/24 19:53:07;;;;;;;;;;;24.70;57.80;;;;;;8300235;28;20012;-46
2021/07/24 19:57:08;;;;;;;;;;;24.80;57.10;;;;;;8301065;28;20505;-48
2021/07/24 20:01:08;;;;;;;;;;;24.90;56.70;;;;;;8300881;28;20390;-47
2021/07/24 20:05:09;;;;;;;;;;;25.00;56.40;;;;;;8301671;28;19918;-45
2021/07/24 20:09:09;;;;;;;;;;;25.10;56.20;;;;;;8301493;28;19917;-49
2021/07/24 20:13:10;;;;;;;;;;;25.10;55.90;;;;;;8301777;28;19922;-46
2021/07/24 20:17:11;;;;;;;;;;;25.10;55.80;;;;;;8300865;28;19917;-48
2021/07/24 20:21:11;;;;;;;;;;;25.10;55.70;;;;;;8301074;28;19988;-48
2021/07/24 20:25:12;;;;;;;;;;;25.20;55.60;;;;;;8302057;28;19921;-47
2021/07/24 20:29:12;;;;;;;;;;;25.10;55.40;;;;;;8300445;28;19918;-48
2021/07/24 20:33:13;;;;;;;;;;;25.20;55.50;;;;;;8300021;28;19917;-48
2021/07/24 20:37:13;;;;;;;;;;;25.20;55.30;;;;;;8300750;28;19924;-48
2021/07/24 20:41:13;;;;;;;;;;;25.20;55.20;;;;;;8300879;28;19929;-46
2021/07/24 20:45:14;;;;;;;;;;;25.20;55.20;;;;;;8300609;28;19918;-46
2021/07/24 20:49:15;;;;;;;;;;;25.20;55.10;;;;;;8298774;28;19918;-46
2021/07/24 20:53:16;;;;;;;;;;;25.20;55.00;;;;;;8299870;28;20386;-49
2021/07/24 20:57:16;;;;;;;;;;;25.20;55.00;;;;;;8300294;28;20051;-48
2021/07/24 21:01:18;;;;;;;;;;;25.20;54.90;;;;;;8333622;28;20493;-47
2021/07/24 21:05:19;;;;;;;;;;;25.20;54.90;;;;;;8332068;28;20003;-46
2021/07/24 21:09:19;;;;;;;;;;;25.20;54.80;;;;;;8332475;28;19924;-46
2021/07/24 21:13:20;;;;;;;;;;;25.20;54.80;;;;;;8332160;28;19924;-46
2021/07/24 21:17:20;;;;;;;;;;;25.20;54.70;;;;;;8332599;28;20293;-46
2021/07/24 21:21:21;;;;;;;;;;;25.20;54.70;;;;;;8331710;28;20031;-47
2021/07/24 21:25:21;;;;;;;;;;;25.20;54.70;;;;;;8332012;28;19917;-46
2021/07/24 21:29:22;;;;;;;;;;;25.20;54.60;;;;;;8331166;28;19923;-47
2021/07/24 21:33:22;;;;;;;;;;;25.10;54.50;;;;;;8332140;28;19920;-47
2021/07/24 21:37:23;;;;;;;;;;;25.20;54.60;;;;;;8331461;28;20285;-46
2021/07/24 21:41:24;;;;;;;;;;;25.20;54.50;;;;;;8330925;28;19925;-45
2021/07/24 21:45:24;;;;;;;;;;;25.20;54.50;;;;;;8331158;28;19960;-46
2021/07/24 21:49:25;;;;;;;;;;;25.20;54.40;;;;;;8331244;28;19917;-46
2021/07/24 21:53:26;;;;;;;;;;;25.20;54.40;;;;;;8331365;28;19913;-46
2021/07/24 21:57:27;;;;;;;;;;;25.10;54.40;;;;;;8331311;28;19921;-45
2021/07/24 22:01:27;;;;;;;;;;;25.20;54.90;;;;;;8321201;28;19925;-46
2021/07/24 22:05:28;;;;;;;;;;;25.10;54.30;;;;;;8303332;28;20404;-45
2021/07/24 22:09:28;;;;;;;;;;;25.10;54.30;;;;;;8331427;28;19914;-47
2021/07/24 22:13:29;;;;;;;;;;;25.10;54.20;;;;;;8330635;28;20024;-45
2021/07/24 22:17:29;;;;;;;;;;;25.10;54.20;;;;;;8330212;28;19924;-46
2021/07/24 22:21:30;;;;;;;;;;;25.20;54.30;;;;;;8330317;28;20412;-47
2021/07/24 22:25:31;;;;;;;;;;;25.10;54.20;;;;;;8331161;28;19917;-47
2021/07/24 22:29:32;;;;;;;;;;;25.10;54.20;;;;;;8330162;28;19917;-47
2021/07/24 22:33:32;;;;;;;;;;;25.10;54.10;;;;;;8330266;28;19924;-46
2021/07/24 22:37:33;;;;;;;;;;;25.10;54.10;;;;;;8330333;28;19940;-48
2021/07/24 22:41:34;;;;;;;;;;;25.10;54.10;;;;;;8329579;28;19936;-47
2021/07/24 22:45:36;;;;;;;;;;;25.10;54.10;;;;;;8330659;28;19913;-47
2021/07/24 22:49:36;;;;;;;;;;;25.10;54.10;;;;;;8330023;28;20393;-48
2021/07/24 22:53:38;;;;;;;;;;;25.10;54.10;;;;;;8329509;28;19929;-46
2021/07/24 22:57:39;;;;;;;;;;;25.10;54.10;;;;;;8334745;28;19917;-47
2021/07/24 23:01:39;;;;;;;;;;;25.10;54.10;;;;;;8337184;28;20389;-46
2021/07/24 23:05:39;;;;;;;;;;;25.10;54.10;;;;;;8335979;28;19928;-47
2021/07/24 23:09:40;;;;;;;;;;;25.10;54.00;;;;;;8336403;28;19917;-48
2021/07/24 23:13:40;;;;;;;;;;;25.00;54.00;;;;;;8336111;28;19940;-46
2021/07/24 23:17:41;;;;;;;;;;;25.00;54.00;;;;;;8335811;28;19917;-46
2021/07/24 23:21:41;;;;;;;;;;;25.10;54.00;;;;;;8336191;28;20011;-47
2021/07/24 23:25:42;;;;;;;;;;;25.00;53.90;;;;;;8335840;28;19952;-47
2021/07/24 23:29:42;;;;;;;;;;;25.00;53.90;;;;;;8335115;28;20433;-46
2021/07/24 23:33:43;;;;;;;;;;;25.10;54.00;;;;;;8335604;28;19921;-48